Date,TemperatureHighF,TemperatureAvgF,TemperatureLowF,DewpointHighF,DewpointAvgF,DewpointLowF,HumidityHigh,HumidityAvg,HumidityLow,PressureMaxIn,PressureMinIn,WindSpeedMaxMPH,WindSpeedAvgMPH,GustSpeedMaxMPH,PrecipitationSumIn
2013-1-1,37,31,22,36,28,19,96,91,85,30.40,30.14,5,1,11,0.01
2013-1-2,37,26,16,28,22,14,94,84,67,30.42,30.31,3,0,7,0.00
2013-1-3,45,31,19,31,24,17,95,78,47,30.57,30.41,2,0,5,0.00
2013-1-4,48,32,18,29,23,16,93,72,42,30.58,30.42,4,0,10,0.00
2013-1-5,47,38,29,34,30,23,91,72,56,30.42,30.26,4,1,12,0.00
2013-1-6,48,33,23,27,23,20,93,70,36,30.52,30.37,4,0,10,0.00
2013-1-7,52,36,19,31,25,17,92,67,43,30.45,30.20,4,1,12,0.00
2013-1-8,56,43,32,45,34,25,95,73,48,30.27,30.12,4,1,12,0.15
2013-1-9,54,49,45,47,44,41,96,84,64,30.40,30.23,4,1,8,0.23
2013-1-10,55,51,48,54,48,44,97,92,75,30.24,29.86,3,1,9,0.28
2013-1-11,69,56,45,49,46,42,95,72,45,29.93,29.74,6,2,17,0.04
2013-1-12,59,39,25,48,30,21,91,73,33,30.16,29.83,8,3,27,0.43
2013-1-13,30,24,18,21,17,12,85,74,60,30.51,30.12,4,2,14,0.07
2013-1-14,34,25,17,19,16,13,89,68,46,30.61,30.45,4,1,10,0.00
2013-1-15,34,26,19,20,16,12,87,68,42,30.45,30.31,5,1,10,0.00
2013-1-16,47,30,15,22,18,12,91,65,33,30.34,30.22,2,0,8,0.00
2013-1-17,53,38,24,33,27,20,87,69,41,30.58,30.31,7,1,14,0.00
2013-1-18,58,41,25,34,29,22,91,65,36,30.59,30.28,7,2,19,0.00
2013-1-19,66,49,38,39,35,32,82,60,36,30.28,30.14,5,1,14,0.00
2013-1-20,63,46,32,44,32,18,83,60,47,30.37,30.18,7,1,17,0.00
2013-1-21,41,32,24,19,15,13,63,51,35,30.52,30.37,5,2,16,0.00
2013-1-22,52,36,20,30,23,15,84,61,41,30.42,30.27,5,1,10,0.00
2013-1-23,62,44,29,44,34,24,82,67,49,30.35,30.20,3,0,9,0.00
2013-1-24,47,40,35,39,26,22,75,56,46,30.36,30.18,4,2,13,0.00
2013-1-25,49,39,32,31,26,22,72,61,50,30.34,30.21,3,0,8,0.00
2013-1-26,54,44,30,36,30,25,85,60,44,30.34,30.17,5,1,11,0.00
2013-1-27,60,52,45,56,48,34,94,86,63,30.18,29.94,6,3,18,0.01
2013-1-28,74,67,57,63,61,55,93,82,66,29.98,29.79,7,4,18,0.01
2013-1-29,71,59,42,64,55,40,96,88,69,29.79,29.47,8,2,18,1.06
2013-1-30,42,36,25,40,28,22,92,75,56,30.16,29.62,6,2,24,0.03
2013-1-31,50,35,23,30,23,12,90,61,40,30.57,30.16,8,3,23,0.00
2013-2-1,43,28,16,22,13,3,74,53,34,30.58,30.27,5,1,13,0.00
2013-2-2,57,39,23,33,27,20,89,64,38,30.38,30.27,3,0,10,0.00
2013-2-3,56,46,32,30,27,23,81,52,28,30.40,30.02,3,1,9,0.00
2013-2-4,67,55,44,42,34,30,66,46,30,30.03,29.88,4,1,14,0.00
2013-2-5,67,48,30,44,34,28,93,63,29,30.11,29.98,2,0,4,0.00
2013-2-6,65,51,33,51,40,30,90,68,51,30.14,29.96,5,2,17,0.00
2013-2-7,61,51,42,55,47,37,93,85,73,30.22,29.90,6,2,15,0.03
2013-2-8,50,40,33,38,33,29,90,76,50,30.42,30.22,6,1,15,0.01
2013-2-9,43,40,38,41,35,32,93,84,74,30.25,29.84,7,2,15,0.15
2013-2-10,61,51,40,50,36,26,97,61,29,30.13,29.71,7,2,16,0.19
2013-2-11,53,41,31,28,26,23,78,57,35,30.32,30.13,3,0,8,0.01
2013-2-12,42,37,32,38,31,26,95,78,60,30.22,30.03,4,1,12,0.30
2013-2-13,54,41,32,38,33,29,96,78,43,30.15,30.03,5,1,12,0.15
2013-2-14,59,44,29,37,31,25,88,62,41,30.29,30.06,5,1,13,0.00
2013-2-15,45,36,26,32,20,12,77,54,29,30.50,30.29,7,2,18,0.00
2013-2-16,44,34,23,27,17,10,83,52,29,30.50,30.19,6,1,10,0.00
2013-2-17,69,50,33,34,29,20,77,48,25,30.19,29.85,6,2,19,0.00
2013-2-18,60,54,38,51,39,26,75,57,41,30.23,29.70,7,4,25,0.00
2013-2-19,49,38,24,27,23,20,87,57,36,30.45,30.22,3,0,14,0.00
2013-2-20,38,34,32,33,28,21,95,80,53,30.38,30.11,4,0,9,0.49
2013-2-21,35,32,29,33,30,21,96,93,84,30.12,29.78,5,1,10,1.23
2013-2-22,38,28,21,23,19,17,86,70,49,30.27,30.05,4,1,9,0.10
2013-2-23,45,32,19,25,21,16,89,66,41,30.25,30.06,2,0,5,0.01
2013-2-24,58,44,28,40,32,23,83,65,46,30.08,29.84,8,2,17,0.00
2013-2-25,45,39,32,37,34,31,95,85,67,29.91,29.54,8,3,21,1.23
2013-2-26,41,36,31,34,32,27,96,85,73,30.02,29.57,5,2,14,0.52
2013-2-27,48,36,28,32,28,26,93,75,46,30.26,30.01,5,1,13,0.01
2013-2-28,47,37,28,31,28,25,87,70,52,30.33,30.26,5,1,15,0.00
2013-3-1,38,34,30,27,24,17,73,66,56,30.44,30.31,6,2,17,0.00
2013-3-2,46,35,26,22,20,18,71,55,35,30.50,30.31,5,1,14,0.00
2013-3-3,63,46,28,34,27,20,77,50,31,30.31,29.77,7,2,18,0.00
2013-3-4,72,57,45,44,39,33,69,53,33,30.02,29.62,8,2,22,0.00
2013-3-5,49,41,34,36,25,17,88,55,34,30.46,30.01,7,3,24,0.10
2013-3-6,50,38,26,25,21,19,74,52,30,30.54,30.31,3,0,7,0.03
2013-3-7,65,50,35,32,29,26,72,46,26,30.33,30.15,7,2,19,0.00
2013-3-8,58,52,46,42,37,31,71,56,46,30.25,30.04,6,2,16,0.00
2013-3-9,62,58,53,57,48,37,95,72,46,30.04,29.71,7,2,19,0.38
2013-3-10,55,42,32,54,38,25,95,83,71,30.12,29.68,5,2,10,0.40
2013-3-11,51,38,27,26,22,16,83,57,24,30.14,30.06,4,1,13,0.01
2013-3-12,59,46,32,37,28,21,80,53,30,30.42,30.12,4,1,9,0.00
2013-3-13,56,42,28,28,24,21,86,51,28,30.58,30.42,3,0,8,0.00
2013-3-14,77,57,38,44,35,25,65,46,28,30.42,30.14,5,1,20,0.00
2013-3-15,83,66,48,51,46,42,82,52,27,30.17,29.80,7,2,17,0.00
2013-3-16,75,63,49,52,46,38,68,55,42,29.89,29.76,10,2,19,0.00
2013-3-17,49,43,40,42,40,36,93,87,69,29.91,29.76,7,2,19,0.00
2013-3-18,60,47,39,41,36,27,94,69,31,30.12,29.77,5,1,12,0.01
2013-3-19,60,47,34,31,28,25,84,52,29,30.32,30.10,4,1,15,0.01
2013-3-20,51,42,33,33,26,17,88,55,28,30.48,30.16,9,1,16,0.00
2013-3-21,42,39,37,34,27,21,85,62,44,30.17,29.83,7,2,17,0.05
2013-3-22,46,40,36,39,36,34,95,85,74,30.01,29.87,4,1,9,0.66
2013-3-23,42,40,38,41,38,35,95,92,83,30.00,29.80,3,1,10,0.03
2013-3-24,39,34,29,37,27,19,95,75,51,30.28,29.86,5,2,11,0.05
2013-3-25,39,32,27,23,20,17,78,61,43,30.49,30.27,5,1,13,0.01
2013-3-26,50,36,20,24,21,16,89,57,32,30.58,30.38,2,0,8,0.00
2013-3-27,66,49,31,34,28,23,71,46,27,30.39,30.16,7,2,21,0.00
2013-3-28,73,59,45,52,42,29,67,54,41,30.25,30.11,5,2,15,0.00
2013-3-29,69,61,51,58,54,48,94,78,67,30.19,30.11,5,1,10,0.25
2013-3-30,75,64,54,61,55,-100,95,78,60,30.11,29.86,5,2,12,0.83
2013-3-31,70,61,52,58,48,43,95,67,39,30.06,29.91,9,2,20,0.59
2013-4-1,61,50,42,45,41,31,92,72,51,30.24,30.03,7,3,17,0.00
2013-4-2,45,40,37,38,35,30,94,84,59,30.32,30.22,5,3,14,0.46
2013-4-3,44,41,38,39,34,30,94,79,58,30.33,30.24,3,1,8,0.28
2013-4-4,60,47,38,40,37,33,95,72,39,30.28,30.16,5,1,15,0.41
2013-4-5,70,54,34,46,41,33,96,66,35,30.29,30.01,4,1,13,0.01
2013-4-6,77,65,55,52,49,44,71,57,39,30.02,29.82,7,2,22,0.00
2013-4-7,66,62,53,59,56,49,92,80,70,29.93,29.76,7,2,22,0.00
2013-4-8,74,67,62,63,60,57,89,77,66,29.81,29.68,7,2,19,0.00
2013-4-9,79,72,52,65,61,44,81,70,57,29.83,29.67,8,3,22,0.00
2013-4-10,50,39,35,44,36,31,95,90,79,30.04,29.83,4,1,11,0.63
2013-4-11,55,43,33,35,30,27,85,64,40,30.05,29.86,3,1,7,0.12
2013-4-12,62,48,36,37,33,28,91,60,33,30.11,29.91,3,0,10,0.00
2013-4-13,72,58,46,51,44,36,89,62,44,30.12,29.79,5,1,19,0.19
2013-4-14,81,68,56,59,51,47,73,56,38,29.80,29.53,11,2,23,0.03
2013-4-15,76,62,54,59,47,38,74,58,47,29.91,29.70,6,3,16,0.08
2013-4-16,61,53,51,53,47,42,90,80,70,30.04,29.88,4,2,12,0.00
2013-4-17,82,68,52,70,61,48,93,78,62,29.98,29.59,8,2,19,0.07
2013-4-18,72,47,40,67,40,27,96,79,59,30.17,29.54,3,1,11,3.49
2013-4-19,62,47,34,39,29,23,74,52,26,30.26,30.12,3,1,11,0.01
2013-4-20,73,56,40,41,37,30,87,54,22,30.25,30.10,5,1,16,0.00
2013-4-21,71,60,53,46,42,39,69,52,34,30.28,30.14,6,1,15,0.00
2013-4-22,76,63,48,53,47,41,76,56,42,30.20,29.90,6,2,19,0.00
2013-4-23,67,45,36,55,41,33,94,86,55,30.30,29.86,5,2,15,0.11
2013-4-24,57,45,33,34,30,24,89,60,31,30.43,30.28,4,1,10,0.01
2013-4-25,71,54,33,38,33,29,93,53,22,30.45,30.24,3,0,11,0.00
2013-4-26,62,55,52,51,46,38,94,75,43,30.25,30.12,3,1,16,0.17
2013-4-27,56,54,51,52,51,49,96,91,82,30.17,30.04,3,0,7,0.23
2013-4-28,80,64,47,60,53,45,95,72,45,30.11,29.88,3,0,10,0.04
2013-4-29,89,74,59,64,57,53,91,61,32,29.90,29.74,5,1,17,0.00
2013-4-30,85,74,63,61,56,51,78,56,31,29.85,29.76,5,2,20,0.00
2013-5-1,84,74,64,65,60,56,83,64,47,30.06,29.83,6,1,18,0.00
2013-5-2,69,44,35,59,39,33,94,83,64,30.47,30.06,9,3,24,0.32
2013-5-3,59,46,35,35,32,27,94,64,30,30.44,30.06,5,2,16,0.23
2013-5-4,48,44,39,45,40,34,94,86,69,30.14,29.98,2,0,8,0.19
2013-5-5,60,50,43,50,45,39,94,83,69,30.23,30.12,2,0,7,0.01
2013-5-6,67,54,43,54,49,42,97,84,59,30.21,30.08,3,0,7,0.00
2013-5-7,79,63,45,57,51,44,97,70,34,30.16,30.01,1,0,7,0.00
2013-5-8,84,70,59,62,56,51,86,61,41,30.06,29.89,5,1,18,0.05
2013-5-9,73,64,58,65,61,56,96,90,68,30.02,29.89,4,0,9,0.88
2013-5-10,73,63,54,63,56,-100,97,82,58,30.12,29.96,4,1,11,1.74
2013-5-11,78,62,48,58,49,-100,97,67,33,30.28,30.12,7,1,18,0.01
2013-5-12,73,59,41,46,41,36,93,57,28,30.35,30.19,2,0,10,0.00
2013-5-13,89,71,53,59,52,43,76,52,32,30.19,30.04,3,0,12,0.00
2013-5-14,90,76,60,63,55,50,72,49,32,30.08,29.93,4,1,15,0.00
2013-5-15,74,70,64,67,62,53,95,78,53,29.99,29.84,4,1,11,0.62
2013-5-16,76,63,61,66,43,-100,96,86,67,29.91,29.83,2,0,11,0.60
2013-5-17,81,69,58,70,60,-100,97,86,67,29.96,29.88,2,0,7,0.01
2013-5-18,87,78,69,75,71,67,95,82,65,29.91,29.75,4,1,17,0.00
2013-5-19,82,75,65,72,68,62,94,78,66,29.89,29.62,8,2,18,0.28
2013-5-20,84,75,67,73,69,65,95,83,70,29.80,29.62,6,1,17,0.12
2013-5-21,69,62,56,67,60,55,96,94,86,29.95,29.66,3,0,13,0.75
2013-5-22,81,66,53,61,57,52,98,76,46,29.97,29.85,1,0,5,0.01
2013-5-23,65,61,57,61,58,55,96,90,75,30.19,29.96,4,0,13,0.28
2013-5-24,80,69,58,67,62,56,97,79,63,30.27,30.15,3,1,12,0.11
2013-5-25,84,73,63,70,63,56,85,72,58,30.22,30.04,4,1,14,0.00
2013-5-26,84,76,67,72,68,64,91,77,62,30.10,29.95,5,2,16,0.00
2013-5-27,84,77,69,71,68,63,93,75,62,29.98,29.76,7,2,18,0.00
2013-5-28,82,77,72,70,68,66,83,73,64,29.83,29.75,5,2,17,0.00
2013-5-29,78,74,67,69,67,63,94,78,71,29.85,29.71,7,2,17,0.30
2013-5-30,82,72,63,74,68,61,96,89,76,29.79,29.67,6,2,17,1.17
2013-5-31,87,79,71,75,72,69,95,81,67,29.79,29.61,6,2,17,0.60
2013-6-1,83,71,63,72,62,56,96,76,46,30.04,29.66,5,0,14,0.12
2013-6-2,71,64,58,58,56,52,94,76,61,30.13,30.03,4,1,11,0.01
2013-6-3,82,68,53,66,60,51,95,76,55,30.08,29.88,2,0,10,0.00
2013-6-4,82,73,65,69,66,62,95,79,66,30.02,29.82,5,0,17,0.45
2013-6-5,83,73,65,70,67,63,96,82,62,30.02,29.88,4,0,9,1.15
2013-6-6,77,69,60,66,60,54,93,75,47,30.00,29.94,4,1,9,0.01
2013-6-7,81,67,55,61,57,54,96,72,41,30.05,29.94,3,0,9,0.00
2013-6-8,83,72,58,65,60,55,93,68,43,29.97,29.82,4,1,13,0.00
2013-6-9,89,77,64,68,62,59,90,62,38,29.93,29.82,3,0,12,0.00
2013-6-10,93,80,66,73,68,61,87,67,46,29.95,29.86,2,0,9,0.00
2013-6-11,94,83,69,73,70,66,90,66,44,29.98,29.88,4,1,15,0.00
2013-6-12,93,84,75,74,72,70,86,69,51,29.97,29.88,4,1,11,0.00
2013-6-13,94,83,73,76,72,68,92,70,52,30.04,29.93,2,0,5,0.00
2013-6-14,95,84,72,78,73,68,88,71,55,30.01,29.90,3,1,10,0.00
2013-6-15,88,78,73,76,73,69,91,83,64,30.01,29.94,5,1,16,0.03
2013-6-16,93,76,68,77,71,66,97,85,55,30.02,29.90,4,0,10,1.27
2013-6-17,78,70,66,72,67,64,97,91,75,30.03,29.87,3,0,8,2.06
2013-6-18,90,76,64,72,67,63,97,76,46,30.07,29.96,2,0,7,0.01
2013-6-19,86,76,64,71,67,63,97,75,52,30.07,29.95,4,1,11,0.00
2013-6-20,92,80,72,77,71,66,84,75,60,30.04,29.93,5,1,12,0.00
2013-6-22,93,89,82,74,70,68,73,55,48,30.03,29.90,6,2,16,0.00
2013-6-23,93,84,75,73,71,70,85,67,50,29.96,29.88,7,2,15,0.00
2013-6-24,92,83,75,72,71,69,85,68,50,30.03,29.90,5,1,16,0.00
2013-6-25,90,82,76,74,72,70,85,71,58,29.94,29.81,5,2,16,0.00
2013-6-26,95,85,77,79,74,69,79,70,58,29.91,29.81,2,1,9,0.00
2013-6-27,100,87,75,81,76,65,93,71,49,29.96,29.84,2,0,8,0.00
2013-6-28,97,85,75,73,68,61,82,58,39,29.98,29.83,3,1,9,0.00
2013-6-29,90,80,65,63,60,55,89,54,33,29.95,29.83,5,1,17,0.00
2013-6-30,82,74,65,60,58,55,77,57,44,30.01,29.89,6,2,15,0.00
2013-7-1,83,73,63,62,56,50,82,58,34,30.10,30.01,5,1,11,0.00
2013-7-2,84,72,57,61,54,50,87,58,33,30.14,30.06,4,0,10,0.00
2013-7-3,87,72,56,62,55,52,93,60,32,30.14,30.02,2,0,7,0.00
2013-7-4,90,76,62,67,61,53,84,61,39,30.08,29.95,2,0,10,0.00
2013-7-5,91,78,63,68,64,60,92,63,39,30.04,29.91,2,0,7,0.00
2013-7-6,89,78,71,69,65,62,75,64,48,30.01,29.93,3,0,13,0.00
2013-7-7,94,83,72,74,68,64,81,62,41,30.04,29.95,3,0,12,0.00
2013-7-8,95,81,71,76,70,-100,87,71,51,30.09,30.00,2,0,9,0.00
2013-7-9,98,87,76,75,72,70,82,63,46,30.07,29.93,5,1,11,0.00
2013-7-10,101,86,75,74,68,-100,79,59,39,30.00,29.88,2,0,6,0.00
2013-7-11,101,86,76,77,73,70,85,66,44,29.99,29.88,2,0,7,0.00
2013-7-12,96,85,74,76,72,70,87,67,47,30.02,29.94,3,1,10,0.00
2013-7-13,96,85,74,71,68,62,76,57,42,30.05,29.92,2,1,8,0.00
2013-7-14,89,78,70,68,64,61,83,65,41,30.07,29.95,3,0,10,0.01
2013-7-15,79,71,64,70,66,62,96,84,67,30.20,30.06,3,0,13,0.85
2013-7-16,90,77,70,73,70,66,95,80,52,30.27,30.19,3,0,12,0.06
2013-7-17,94,82,71,74,71,69,94,72,47,30.32,30.19,3,0,8,0.01
2013-7-18,95,83,71,76,72,69,96,72,46,30.22,30.02,1,0,6,0.00
2013-7-19,97,84,72,75,72,69,92,70,44,30.06,29.91,2,0,8,0.00
2013-7-20,97,83,71,75,70,-100,90,68,43,29.97,29.83,3,0,9,0.00
2013-7-21,89,78,71,78,72,68,96,84,68,29.96,29.82,2,0,9,0.74
2013-7-22,95,84,76,79,74,69,89,74,54,29.93,29.79,3,0,11,0.30
2013-7-23,99,87,75,80,75,71,89,68,48,29.91,29.77,2,0,6,0.30
2013-7-24,88,77,68,76,70,65,96,81,57,30.03,29.84,5,0,15,0.54
2013-7-25,87,78,69,75,71,68,96,81,63,30.11,30.01,1,0,5,0.03
2013-7-26,80,75,68,73,71,67,96,88,76,30.06,29.96,3,0,10,0.66
2013-7-27,85,72,65,68,65,63,97,82,51,30.10,29.99,1,0,5,0.01
2013-7-28,87,76,67,70,65,61,84,71,55,30.06,29.97,2,0,7,0.00
2013-7-29,89,79,71,76,71,66,87,77,63,30.03,29.93,4,1,14,0.00
2013-7-30,91,80,70,78,73,68,96,82,63,30.05,29.95,3,0,8,0.63
2013-7-31,90,82,75,77,74,71,95,78,61,30.09,30.01,3,0,10,0.01
2013-8-1,94,82,71,72,69,65,93,68,40,30.11,29.96,1,0,6,0.00
2013-8-2,94,83,76,80,75,69,88,77,62,29.98,29.83,2,0,12,0.00
2013-8-3,86,79,72,75,73,70,94,82,69,30.07,29.86,2,0,9,0.62
2013-8-4,88,80,75,79,75,71,94,84,71,30.11,29.96,3,0,8,0.04
2013-8-5,97,85,75,79,75,72,91,74,54,29.99,29.81,2,1,9,0.00
2013-8-6,99,88,76,78,74,70,89,65,47,29.87,29.77,3,0,10,0.00
2013-8-7,96,86,78,79,75,71,82,69,53,29.89,29.81,2,1,8,0.00
2013-8-8,85,79,71,76,73,69,94,84,71,29.95,29.84,3,0,9,0.21
2013-8-9,84,76,70,75,72,68,96,87,72,30.08,29.91,4,0,8,0.53
2013-8-10,85,75,67,73,69,65,95,82,64,30.15,30.05,2,1,7,0.01
2013-8-11,90,80,72,76,72,69,93,80,60,30.11,30.02,2,0,4,0.00
2013-8-12,84,77,73,76,73,70,96,89,76,30.09,29.97,4,0,14,0.13
2013-8-13,82,73,70,74,69,-100,97,91,76,30.09,29.98,2,0,8,1.95
2013-8-14,85,73,65,70,61,-100,96,76,53,30.16,30.06,2,0,5,1.60
2013-8-15,83,66,62,67,49,-100,93,70,55,30.15,30.02,2,0,7,0.00
2013-8-16,82,70,64,67,61,-100,97,77,56,30.14,30.01,2,0,6,0.26
2013-8-17,81,71,62,64,60,-100,94,72,50,30.19,30.08,3,0,6,0.00
2013-8-18,86,73,61,69,64,59,96,76,50,30.18,30.06,2,0,8,0.00
2013-8-19,86,71,64,70,55,-100,96,76,55,30.14,30.02,3,0,8,0.00
2013-8-20,91,77,65,73,66,-100,95,74,46,30.10,30.01,3,0,7,0.00
2013-8-21,93,79,68,73,68,65,92,72,45,30.11,30.03,2,0,8,0.00
2013-8-22,93,82,70,75,71,67,90,69,50,30.12,30.00,2,0,7,0.00
2013-8-23,92,82,72,75,71,68,87,72,53,30.08,29.98,3,0,10,0.00
2013-8-24,95,81,72,76,70,-100,92,72,47,30.14,30.03,3,0,7,0.00
2013-8-25,94,83,72,77,72,69,94,72,50,30.21,30.12,2,0,8,0.00
2013-8-26,93,82,73,75,72,69,89,72,52,30.22,30.10,3,0,9,0.00
2013-8-27,91,78,68,74,69,65,92,75,53,30.14,30.07,2,0,7,0.00
2013-8-28,94,88,80,75,73,72,78,62,52,30.09,30.01,2,1,9,0.00
2013-8-29,98,85,74,74,72,70,90,67,42,30.08,29.98,1,0,7,0.00
2013-8-30,100,84,72,73,72,70,93,68,42,30.01,29.87,2,0,7,0.00
2013-8-31,102,87,77,75,70,-100,77,60,40,29.91,29.79,2,0,7,0.00
2013-9-1,92,82,73,76,72,68,92,73,58,29.93,29.80,3,0,10,0.08
2013-9-2,89,78,70,72,66,61,89,68,42,30.04,29.92,4,1,12,0.08
2013-9-3,90,77,62,66,62,59,95,65,36,30.09,29.99,2,0,5,0.00
2013-9-4,94,77,62,71,64,60,94,67,43,30.16,30.05,1,0,6,0.00
2013-9-5,94,80,66,68,65,61,87,63,40,30.19,30.07,2,0,5,0.00
2013-9-6,96,80,67,69,65,61,82,61,40,30.15,30.00,2,0,7,0.00
2013-9-7,99,83,72,70,64,-100,72,56,36,30.05,29.92,2,0,6,0.00
2013-9-8,98,84,71,72,68,66,87,62,37,29.98,29.88,2,0,8,0.00
2013-9-9,96,82,67,71,66,63,91,62,39,30.01,29.92,3,0,11,0.00
2013-9-10,95,81,68,71,66,63,88,64,40,30.13,29.98,3,0,9,0.00
2013-9-11,96,80,67,70,66,64,92,67,36,30.17,30.04,2,0,8,0.00
2013-9-12,96,81,70,71,69,66,93,69,42,30.12,30.01,3,0,10,0.00
2013-9-13,87,77,69,70,61,52,86,60,40,30.10,29.98,2,1,7,0.00
2013-9-14,87,73,62,62,56,-100,76,58,40,30.09,29.97,3,0,9,0.00
2013-9-15,88,77,65,69,62,53,70,60,47,30.06,29.99,2,0,8,0.00
2013-9-16,85,76,69,71,68,67,94,77,55,30.22,30.04,2,0,8,0.18
2013-9-17,82,73,67,72,68,65,95,86,66,30.16,29.99,1,0,6,0.35
2013-9-18,76,73,70,69,68,67,92,85,74,30.02,29.94,1,0,7,0.35
2013-9-19,91,78,71,74,70,67,89,78,55,30.00,29.86,3,0,14,0.04
2013-9-20,71,67,59,68,62,55,96,85,61,30.04,29.96,4,1,11,0.61
2013-9-21,80,64,52,57,52,-100,97,72,40,30.09,29.96,3,0,6,0.01
2013-9-22,81,65,50,56,51,48,96,66,36,30.03,29.88,3,0,7,0.01
2013-9-23,81,68,54,58,55,51,90,65,42,29.95,29.81,4,1,13,0.00
2013-9-24,83,69,59,59,57,55,87,68,43,29.95,29.88,3,0,9,0.00
2013-9-25,85,69,55,62,58,54,97,72,43,29.96,29.82,1,0,4,0.00
2013-9-26,92,76,62,65,60,58,89,62,36,29.94,29.84,4,1,11,0.00
2013-9-27,89,78,65,65,61,58,86,59,38,30.00,29.86,6,1,14,0.00
2013-9-28,78,67,56,68,60,-100,96,82,63,30.14,29.87,4,1,12,1.44
2013-9-29,76,61,52,61,54,51,97,80,44,30.15,29.99,2,0,8,0.01
2013-9-30,82,65,50,64,56,49,97,76,42,30.00,29.86,3,0,10,0.01
2013-10-1,80,76,72,68,66,64,86,73,58,29.98,29.93,1,0,5,0.00
2013-10-2,86,76,69,72,69,67,95,79,60,30.03,29.89,5,1,12,0.00
2013-10-3,86,77,70,73,70,67,92,78,65,29.93,29.79,5,2,15,0.00
2013-10-4,87,78,72,72,69,67,91,75,58,29.91,29.81,4,2,16,0.00
2013-10-5,77,58,47,68,49,42,94,74,46,30.16,29.90,5,1,18,0.75
2013-10-6,67,54,43,48,44,39,95,70,43,30.13,30.06,2,0,7,0.01
2013-10-7,74,56,41,50,44,40,96,70,30,30.25,30.10,2,0,6,0.00
2013-10-8,75,60,46,53,49,44,96,70,39,30.21,30.07,4,1,13,0.00
2013-10-9,78,63,48,58,52,45,93,70,48,30.15,30.04,3,1,15,0.00
2013-10-10,80,67,55,62,56,51,88,70,50,30.12,29.92,4,1,12,0.00
2013-10-11,80,70,61,69,63,55,89,79,67,29.93,29.83,5,1,16,0.00
2013-10-12,74,66,58,68,56,-100,94,73,54,30.19,29.89,4,1,12,0.00
2013-10-13,75,67,62,65,57,51,75,69,66,30.33,30.19,2,0,7,0.00
2013-10-14,66,62,58,63,58,53,96,87,70,30.25,29.96,2,0,10,1.03
2013-10-15,66,58,53,65,53,47,96,84,67,30.16,29.93,6,1,15,0.10
2013-10-16,61,52,44,47,43,40,88,72,55,30.24,30.11,3,1,10,0.05
2013-10-17,68,52,39,49,44,38,97,78,46,30.16,30.03,2,0,7,0.00
2013-10-18,56,47,40,47,43,38,96,87,72,30.24,30.07,4,1,12,0.18
2013-10-19,63,46,33,44,36,-100,96,74,40,30.27,30.09,2,0,7,0.17
2013-10-20,70,54,40,46,42,38,91,66,34,30.10,29.92,4,1,13,0.00
2013-10-21,58,51,39,48,43,37,93,76,51,30.19,30.01,4,1,13,0.01
2013-10-22,73,53,37,50,43,35,95,72,42,30.19,30.05,1,0,9,0.01
2013-10-23,66,53,39,48,43,37,94,71,43,30.26,30.07,2,0,9,0.00
2013-10-24,56,49,43,46,39,33,93,71,50,30.49,30.14,7,1,13,0.00
2013-10-25,60,51,36,40,36,30,82,57,40,30.57,30.31,3,0,9,0.00
2013-10-26,67,54,46,56,46,-100,94,78,66,30.32,30.15,2,0,9,0.00
2013-10-27,69,53,38,52,41,30,95,69,24,30.20,30.04,1,0,4,0.00
2013-10-28,70,60,47,58,53,-100,96,83,63,30.20,30.07,3,0,9,0.00
2013-10-29,74,68,61,68,64,57,92,88,81,30.13,29.98,5,1,15,0.01
2013-10-30,70,67,63,67,64,61,96,92,87,30.04,29.81,5,1,17,1.29
2013-10-31,69,62,47,64,57,45,97,85,60,29.85,29.61,3,1,15,0.62
2013-11-1,71,54,41,50,44,40,97,72,38,30.11,29.85,1,0,9,0.56
2013-11-2,61,49,39,42,36,-100,90,65,37,30.34,30.11,4,0,13,0.00
2013-11-3,62,49,36,43,39,34,94,69,46,30.28,30.05,4,1,17,0.00
2013-11-4,65,57,50,54,50,43,90,78,64,30.16,30.02,5,1,16,0.04
2013-11-5,63,58,55,62,57,53,96,95,90,30.16,29.97,4,1,12,0.52
2013-11-6,63,45,35,61,40,33,95,85,63,30.45,29.97,5,1,16,0.64
2013-11-7,65,45,30,43,37,29,97,76,34,30.56,30.42,1,0,5,0.02
2013-11-8,67,51,34,42,38,33,97,64,31,30.42,30.12,6,1,21,0.00
2013-11-9,68,56,50,47,42,-100,84,63,41,30.33,30.13,3,0,8,0.00
2013-11-10,70,56,46,49,47,43,92,73,43,30.43,30.32,2,0,7,0.00
2013-11-11,72,57,44,57,49,38,94,77,53,30.52,30.22,8,1,22,0.00
2013-11-12,43,34,25,38,21,16,81,62,41,30.87,30.52,7,3,22,0.00
2013-11-13,51,35,21,26,22,18,93,62,31,30.81,30.42,3,0,10,0.00
2013-11-14,54,44,32,35,27,22,67,53,35,30.41,30.10,5,1,15,0.00
2013-11-15,62,52,43,50,45,35,91,77,62,30.10,29.87,4,1,12,0.10
2013-11-16,74,64,53,65,57,-100,94,81,64,29.88,29.60,8,3,20,0.01
2013-11-17,74,67,49,65,45,22,85,51,22,30.16,29.57,5,1,15,0.01
2013-11-18,64,50,36,39,31,25,83,50,23,30.34,30.15,2,0,9,0.00
2013-11-19,58,53,48,33,30,26,52,41,31,30.29,30.07,4,1,13,0.00
2013-11-20,60,53,46,47,36,29,65,52,41,30.08,29.93,8,2,19,0.00
2013-11-21,59,50,34,53,46,32,93,85,60,30.43,30.01,5,2,18,0.24
2013-11-22,34,31,29,32,27,25,92,87,78,30.65,30.43,7,3,20,0.02
2013-11-23,39,33,27,28,20,-100,87,64,36,30.79,30.65,7,2,16,0.01
2013-11-24,30,26,22,18,15,12,70,62,54,30.80,30.46,4,1,13,0.01
2013-11-25,35,32,29,31,25,16,90,76,56,30.47,30.31,2,0,7,0.00
2013-11-26,47,37,30,30,26,14,88,66,46,30.50,30.27,7,2,18,0.00
2013-11-27,39,28,20,16,13,10,69,53,32,30.58,30.42,4,0,13,0.00
2013-11-28,57,39,25,33,24,14,69,54,39,30.53,30.39,3,0,9,0.00
2013-11-29,56,40,25,32,27,22,89,61,34,30.59,30.38,4,1,12,0.00
2013-11-30,61,48,39,47,38,-100,93,71,59,30.40,30.17,4,1,11,0.00
2013-12-1,55,47,39,51,45,37,96,91,85,30.19,29.96,1,0,4,0.00
2013-12-2,59,50,43,50,46,41,96,88,70,29.97,29.73,2,0,7,0.00
2013-12-3,60,50,42,53,47,41,97,92,76,29.73,29.58,2,0,9,0.00
2013-12-4,48,42,29,47,38,22,96,87,75,30.12,29.57,4,1,10,0.00
2013-12-5,29,24,20,22,16,13,85,71,58,30.43,30.11,5,3,19,0.00
2013-12-6,21,18,14,17,13,4,92,80,62,30.73,30.39,6,2,15,0.00
2013-12-7,21,15,7,13,6,-100,80,68,61,30.80,30.45,3,1,11,0.00
2013-12-8,29,25,21,27,22,13,93,86,72,30.45,30.13,2,0,8,0.00
2013-12-9,27,22,18,23,17,14,91,80,67,30.54,30.31,5,1,12,0.00
2013-12-10,35,23,10,22,16,8,92,75,52,30.60,30.38,3,0,8,0.02
2013-12-11,36,27,17,26,20,15,93,76,59,30.73,30.40,5,1,15,0.05
2013-12-12,42,28,14,28,21,12,93,76,54,30.73,30.34,3,0,12,0.03
2013-12-13,39,36,33,37,32,27,95,86,74,30.34,29.91,6,1,15,0.60
2013-12-14,39,33,23,38,28,-100,96,85,69,30.37,29.93,5,1,18,0.45
2013-12-15,59,36,20,36,27,19,94,71,36,30.38,30.20,3,0,9,0.00
2013-12-16,69,48,35,36,32,29,78,56,28,30.23,30.12,3,1,8,0.00
2013-12-17,59,42,30,37,31,27,91,68,37,30.40,30.21,4,0,10,0.00
2013-12-18,69,48,28,43,35,25,92,63,34,30.35,29.99,7,2,17,0.00
2013-12-19,63,58,53,57,51,43,86,77,63,29.98,29.72,7,3,19,0.00
2013-12-20,61,38,28,57,34,23,91,83,74,30.04,29.71,5,1,10,0.02
2013-12-21,31,30,28,30,28,-100,96,94,91,29.93,29.60,1,0,4,0.01
2013-12-22,30,28,26,29,26,23,96,92,89,30.50,29.87,0,0,0,0.00
2013-12-23,28,24,18,24,21,16,92,89,81,30.74,30.50,0,0,0,0.00
2013-12-24,41,27,14,34,23,12,93,85,71,30.73,30.32,3,0,12,0.01
2013-12-25,40,32,25,35,29,24,95,89,79,30.53,30.40,1,0,8,0.01
2013-12-26,51,34,21,37,28,20,96,79,48,30.53,30.39,2,0,8,0.00
2013-12-27,60,41,26,35,29,23,90,66,34,30.51,30.39,3,0,9,0.00
2013-12-28,58,43,29,40,32,-100,90,68,45,30.38,30.01,4,1,12,0.00
2013-12-29,44,30,21,37,21,7,87,70,53,30.41,30.01,9,2,22,0.00
2013-12-30,38,24,14,18,12,5,77,60,44,30.50,30.37,3,0,9,0.00
2013-12-31,55,36,18,28,21,15,90,59,25,30.49,30.26,6,1,21,0.00
2014-1-1,54,39,18,36,28,14,83,65,49,30.36,29.96,6,2,17,0.00
2014-1-2,31,21,12,16,11,6,85,66,52,30.60,30.37,5,1,13,0.00